Time;durP1;ratioP1;P1;durP2;ratioP2;P2;SDS_P1;SDS_P2;PMS_P1;PMS_P2;Temp;Humidity;BMP_temperature;BMP_pressure;BME280_temperature;BME280_humidity;BME280_pressure;Samples;Min_cycle;Max_cycle;Signal;HPM_P1;HPM_P2
2023/07/14 00:01:23;;;;;;;11.43;10.40;;;16.50;99.90;;;;;;5055121;28;20549;-71
2023/07/14 00:03:52;;;;;;;12.13;11.20;;;16.50;99.90;;;;;;5056535;28;20445;-71
2023/07/14 00:06:21;;;;;;;11.17;10.37;;;16.50;99.90;;;;;;5054863;28;20979;-71
2023/07/14 00:08:50;;;;;;;11.07;10.10;;;16.50;99.90;;;;;;5056879;28;20441;-71
2023/07/14 00:11:21;;;;;;;12.17;11.27;;;16.50;99.90;;;;;;5056256;28;20434;-71
2023/07/14 00:13:50;;;;;;;12.90;11.80;;;16.50;99.90;;;;;;5056035;28;20436;-71
2023/07/14 00:16:20;;;;;;;15.20;14.03;;;16.50;99.90;;;;;;5055856;28;20463;-71
2023/07/14 00:18:49;;;;;;;12.60;11.63;;;16.40;99.90;;;;;;5055937;28;20404;-71
2023/07/14 00:21:21;;;;;;;12.93;11.93;;;16.40;99.90;;;;;;5056044;28;20829;-71
2023/07/14 00:23:50;;;;;;;13.53;12.30;;;16.40;99.90;;;;;;5054764;28;20767;-71
2023/07/14 00:26:21;;;;;;;13.43;12.27;;;16.40;99.90;;;;;;5055743;28;20442;-71
2023/07/14 00:28:50;;;;;;;12.77;11.67;;;16.40;99.90;;;;;;5053930;28;20434;-71
2023/07/14 00:31:20;;;;;;;13.17;11.97;;;16.30;99.90;;;;;;5055799;28;20442;-71
2023/07/14 00:33:51;;;;;;;13.90;12.70;;;16.30;99.90;;;;;;5054333;28;20441;-71
2023/07/14 00:36:19;;;;;;;15.00;13.80;;;16.30;99.90;;;;;;5054614;28;20874;-71
2023/07/14 00:38:47;;;;;;;13.73;12.80;;;16.30;99.90;;;;;;5054335;28;20435;-71
2023/07/14 00:41:20;;;;;;;13.90;12.90;;;16.30;99.90;;;;;;5054385;28;20848;-71
2023/07/14 00:43:49;;;;;;;14.67;13.57;;;16.20;99.90;;;;;;5059818;28;20423;-71
2023/07/14 00:46:25;;;;;;;13.77;12.60;;;16.20;99.90;;;;;;5073062;28;20449;-71
2023/07/14 00:48:56;;;;;;;14.20;13.20;;;16.20;99.90;;;;;;5056682;28;20450;-71
2023/07/14 00:51:27;;;;;;;14.93;13.83;;;16.20;99.90;;;;;;5055957;28;20845;-71
2023/07/14 00:53:56;;;;;;;15.03;13.90;;;16.20;99.90;;;;;;5056372;28;20462;-71
2023/07/14 00:56:41;;;;;;;14.27;12.97;;;16.20;99.90;;;;;;5054132;28;20429;-70
2023/07/14 00:59:14;;;;;;;14.63;13.33;;;16.20;99.90;;;;;;5070626;28;20802;-71
2023/07/14 01:02:16;;;;;;;15.17;13.93;;;16.10;99.90;;;;;;5054146;28;20451;-71
2023/07/14 01:04:47;;;;;;;15.60;14.40;;;16.10;99.90;;;;;;5054055;28;20409;-71
2023/07/14 01:07:16;;;;;;;17.47;16.23;;;16.10;99.90;;;;;;5053920;28;20448;-70
2023/07/14 01:09:47;;;;;;;17.07;15.70;;;16.00;99.90;;;;;;5055424;28;20453;-71
2023/07/14 01:12:20;;;;;;;15.70;14.50;;;16.00;99.90;;;;;;5054121;28;20802;-71
2023/07/14 01:14:51;;;;;;;16.40;14.70;;;16.00;99.90;;;;;;5055233;28;20393;-71
2023/07/14 01:17:21;;;;;;;15.37;13.80;;;16.00;99.90;;;;;;5054921;28;20487;-71
2023/07/14 01:19:52;;;;;;;16.03;14.80;;;16.00;99.90;;;;;;5055250;28;20561;-71
2023/07/14 01:22:28;;;;;;;17.13;15.53;;;16.00;99.90;;;;;;5053578;28;20450;-71
2023/07/14 01:25:12;;;;;;;15.10;14.00;;;16.00;99.90;;;;;;5053397;28;20466;-71
2023/07/14 01:27:41;;;;;;;15.47;14.17;;;15.90;99.90;;;;;;5053391;28;20412;-71
2023/07/14 01:30:10;;;;;;;16.03;14.70;;;15.90;99.90;;;;;;5053154;28;20501;-71
2023/07/14 01:32:40;;;;;;;16.73;15.13;;;15.90;99.90;;;;;;5053276;28;20490;-71
2023/07/14 01:35:09;;;;;;;15.80;14.60;;;15.90;99.90;;;;;;5069863;28;20525;-71
2023/07/14 01:37:39;;;;;;;16.47;15.27;;;15.80;99.90;;;;;;5070114;28;20460;-71
2023/07/14 01:40:11;;;;;;;16.20;14.83;;;15.80;99.90;;;;;;5052748;28;20425;-71
2023/07/14 01:42:43;;;;;;;15.90;14.70;;;15.80;99.90;;;;;;5052746;28;20902;-71
2023/07/14 01:45:14;;;;;;;15.77;14.57;;;15.80;99.90;;;;;;5052914;28;20466;-71
2023/07/14 01:47:45;;;;;;;15.33;14.20;;;15.80;99.90;;;;;;5052943;28;20511;-71
2023/07/14 01:50:20;;;;;;;17.30;15.93;;;15.80;99.90;;;;;;5054195;28;20545;-71
2023/07/14 01:52:51;;;;;;;17.00;15.50;;;15.70;99.90;;;;;;5052876;28;20962;-71
2023/07/14 01:55:21;;;;;;;15.20;13.90;;;15.70;99.90;;;;;;5052841;28;20446;-71
2023/07/14 01:57:55;;;;;;;16.30;14.97;;;15.70;99.90;;;;;;5054094;28;20414;-71
2023/07/14 02:00:24;;;;;;;16.03;14.60;;;15.60;99.90;;;;;;5052704;28;20462;-71
2023/07/14 02:02:54;;;;;;;17.40;16.00;;;15.60;99.90;;;;;;5052688;28;20429;-71
2023/07/14 02:05:27;;;;;;;16.30;15.13;;;15.60;99.90;;;;;;5052809;28;20887;-71
2023/07/14 02:07:58;;;;;;;15.30;14.00;;;15.60;99.90;;;;;;5054343;28;20911;-71
2023/07/14 02:10:26;;;;;;;16.50;15.30;;;15.60;99.90;;;;;;5052473;28;21040;-71
2023/07/14 02:12:57;;;;;;;16.73;15.30;;;15.60;99.90;;;;;;5069036;28;20933;-71
2023/07/14 02:15:29;;;;;;;17.87;16.37;;;15.50;99.90;;;;;;5053350;28;20437;-71
2023/07/14 02:17:58;;;;;;;16.27;15.07;;;15.50;99.90;;;;;;5053774;28;20453;-70
2023/07/14 02:20:30;;;;;;;16.13;14.93;;;15.50;99.90;;;;;;5052442;28;20462;-71
2023/07/14 02:23:01;;;;;;;17.43;16.23;;;15.50;99.90;;;;;;5053657;28;20496;-71
2023/07/14 02:25:36;;;;;;;18.03;16.53;;;15.50;99.90;;;;;;5053612;28;20449;-71
2023/07/14 02:28:05;;;;;;;17.30;15.90;;;15.40;99.90;;;;;;5052280;28;20540;-71
2023/07/14 02:30:35;;;;;;;14.87;13.77;;;15.40;99.90;;;;;;5053401;28;20446;-71
2023/07/14 02:33:08;;;;;;;16.13;14.93;;;15.40;99.90;;;;;;5053704;28;20934;-71
2023/07/14 02:35:45;;;;;;;18.43;16.87;;;15.40;99.90;;;;;;5053625;28;20433;-70
2023/07/14 02:38:15;;;;;;;17.50;16.10;;;15.40;99.90;;;;;;5054040;28;20446;-70
2023/07/14 02:40:49;;;;;;;24.30;22.50;;;15.40;99.90;;;;;;5053731;28;21108;-71
2023/07/14 02:43:20;;;;;;;25.13;23.13;;;15.40;99.90;;;;;;5052074;28;20466;-71
2023/07/14 02:45:54;;;;;;;20.93;19.20;;;15.30;99.90;;;;;;5053949;28;20415;-70
2023/07/14 02:48:27;;;;;;;19.73;18.03;;;15.30;99.90;;;;;;5052104;28;20536;-71
2023/07/14 02:50:56;;;;;;;20.07;18.57;;;15.30;99.90;;;;;;5052121;28;20476;-70
2023/07/14 02:53:24;;;;;;;18.20;16.77;;;15.30;99.90;;;;;;5056833;28;20474;-70
2023/07/14 02:55:52;;;;;;;16.20;14.83;;;15.30;99.90;;;;;;5059960;28;20434;-71
2023/07/14 02:58:22;;;;;;;20.53;18.87;;;15.30;99.90;;;;;;5060424;28;20419;-71
2023/07/14 03:00:50;;;;;;;17.43;16.13;;;15.20;99.90;;;;;;5058785;28;20982;-71
2023/07/14 03:03:19;;;;;;;17.70;16.40;;;15.20;99.90;;;;;;5065298;28;20919;-71
2023/07/14 03:05:47;;;;;;;19.33;17.73;;;15.20;99.90;;;;;;5066449;28;20492;-71
2023/07/14 03:08:16;;;;;;;19.20;17.57;;;15.20;99.90;;;;;;5060207;28;20450;-70
2023/07/14 03:10:46;;;;;;;17.60;16.30;;;15.20;99.90;;;;;;5063822;28;20461;-71
2023/07/14 03:13:16;;;;;;;19.00;17.50;;;15.20;99.90;;;;;;5061526;28;20869;-70
2023/07/14 03:15:46;;;;;;;18.77;17.20;;;15.20;99.90;;;;;;5059484;28;20480;-71
2023/07/14 03:18:15;;;;;;;19.70;18.00;;;15.20;99.90;;;;;;5060834;28;20413;-70
2023/07/14 03:20:44;;;;;;;19.47;18.00;;;15.10;99.90;;;;;;5060352;28;20839;-70
2023/07/14 03:23:12;;;;;;;18.37;16.80;;;15.10;99.90;;;;;;5059877;28;20515;-71
2023/07/14 03:25:40;;;;;;;19.57;18.07;;;15.10;99.90;;;;;;5059593;28;20865;-71
2023/07/14 03:28:09;;;;;;;19.50;17.90;;;15.10;99.90;;;;;;5058727;28;20454;-71
2023/07/14 03:30:41;;;;;;;20.43;18.93;;;15.10;99.90;;;;;;5060008;28;20465;-70
2023/07/14 03:33:11;;;;;;;19.70;18.20;;;15.10;99.90;;;;;;5060407;28;20447;-70
2023/07/14 03:35:39;;;;;;;18.97;17.43;;;15.10;99.90;;;;;;5059598;28;20444;-70
2023/07/14 03:38:09;;;;;;;19.17;17.73;;;15.00;99.90;;;;;;5058985;28;20449;-70
2023/07/14 03:40:37;;;;;;;20.40;18.80;;;15.00;99.90;;;;;;5059866;28;20800;-70
2023/07/14 03:43:06;;;;;;;21.43;19.73;;;15.00;99.90;;;;;;5059788;28;20409;-71
2023/07/14 03:45:36;;;;;;;22.37;20.13;;;15.00;99.90;;;;;;5058393;28;20446;-70
2023/07/14 03:48:04;;;;;;;20.70;19.20;;;15.00;99.90;;;;;;5058268;28;20422;-70
2023/07/14 03:50:35;;;;;;;20.17;18.50;;;15.00;99.90;;;;;;5060120;28;20433;-71
2023/07/14 03:53:03;;;;;;;22.13;20.33;;;15.00;99.90;;;;;;5062608;28;20559;-70
2023/07/14 03:55:33;;;;;;;21.50;19.80;;;15.00;99.90;;;;;;5060170;28;20876;-71
2023/07/14 03:58:01;;;;;;;20.97;19.23;;;14.90;99.90;;;;;;5075868;28;20528;-70
2023/07/14 04:00:33;;;;;;;21.83;20.03;;;14.90;99.90;;;;;;5059735;28;20458;-70
2023/07/14 04:03:01;;;;;;;21.20;19.50;;;14.90;99.90;;;;;;5058169;28;20449;-70
2023/07/14 04:05:29;;;;;;;21.80;20.07;;;14.90;99.90;;;;;;5055414;28;20777;-70
2023/07/14 04:07:59;;;;;;;21.70;20.10;;;15.00;99.90;;;;;;5056247;28;20415;-70
2023/07/14 04:10:28;;;;;;;23.30;21.20;;;15.00;99.90;;;;;;5054827;28;20473;-70
2023/07/14 04:12:59;;;;;;;21.40;19.70;;;15.00;99.90;;;;;;5055024;28;20530;-70
2023/07/14 04:15:27;;;;;;;23.60;21.80;;;15.00;99.90;;;;;;5054676;28;20500;-70
2023/07/14 04:17:55;;;;;;;19.37;17.80;;;15.00;99.90;;;;;;5056203;28;20500;-70
2023/07/14 04:20:23;;;;;;;23.30;21.40;;;15.00;99.90;;;;;;5056041;28;20457;-70
2023/07/14 04:22:51;;;;;;;22.93;21.00;;;15.00;99.90;;;;;;5056129;28;20529;-71
2023/07/14 04:25:21;;;;;;;23.50;21.57;;;15.00;99.90;;;;;;5055779;28;20435;-70
2023/07/14 04:27:49;;;;;;;24.50;22.53;;;15.00;99.90;;;;;;5055945;28;20484;-71
2023/07/14 04:30:17;;;;;;;22.93;21.13;;;15.00;99.90;;;;;;5055873;28;20458;-70
2023/07/14 04:32:47;;;;;;;23.33;21.63;;;15.00;99.90;;;;;;5055982;28;20434;-70
2023/07/14 04:35:16;;;;;;;24.63;22.63;;;15.00;99.90;;;;;;5055855;28;20440;-71
2023/07/14 04:37:44;;;;;;;25.10;23.20;;;15.00;99.90;;;;;;5054399;28;20446;-73
2023/07/14 04:40:12;;;;;;;25.80;23.60;;;15.00;99.90;;;;;;5054279;28;20875;-71
2023/07/14 04:43:02;;;;;;;25.43;23.43;;;15.00;99.90;;;;;;5056223;28;20423;-70
2023/07/14 04:45:30;;;;;;;24.67;22.67;;;15.00;99.90;;;;;;5055486;28;20462;-70
2023/07/14 04:47:59;;;;;;;26.13;24.03;;;15.10;99.90;;;;;;5055837;28;20469;-70
2023/07/14 04:50:27;;;;;;;27.87;25.63;;;15.10;99.90;;;;;;5055395;28;20432;-70
2023/07/14 04:52:56;;;;;;;27.50;25.40;;;15.10;99.90;;;;;;5055329;28;20430;-70
2023/07/14 04:55:24;;;;;;;28.30;26.07;;;15.10;99.90;;;;;;5055764;28;20515;-70
2023/07/14 04:57:52;;;;;;;29.00;26.43;;;15.10;99.90;;;;;;5055149;28;20462;-70
2023/07/14 05:00:22;;;;;;;25.07;23.13;;;15.10;99.90;;;;;;5054977;28;20464;-70
2023/07/14 05:02:50;;;;;;;28.43;26.10;;;15.10;99.90;;;;;;5055156;28;20453;-70
2023/07/14 05:05:20;;;;;;;27.60;25.50;;;15.20;99.90;;;;;;5053742;28;20451;-71
2023/07/14 05:07:49;;;;;;;27.10;25.00;;;15.20;99.90;;;;;;5054450;28;20421;-70
2023/07/14 05:10:18;;;;;;;27.77;25.53;;;15.20;99.90;;;;;;5055104;28;20524;-70
2023/07/14 05:12:46;;;;;;;29.87;27.37;;;15.20;99.90;;;;;;5053626;28;20446;-70
2023/07/14 05:15:15;;;;;;;28.83;26.43;;;15.20;99.90;;;;;;5053352;28;20490;-70
2023/07/14 05:17:45;;;;;;;30.27;27.50;;;15.20;99.90;;;;;;5054828;28;20860;-70
2023/07/14 05:20:15;;;;;;;30.00;27.50;;;15.30;99.90;;;;;;5054631;28;20511;-71
2023/07/14 05:22:45;;;;;;;28.00;25.70;;;15.30;99.90;;;;;;5054665;28;20434;-71
2023/07/14 05:25:14;;;;;;;31.90;28.87;;;15.30;99.90;;;;;;5054573;28;20454;-71
2023/07/14 05:27:43;;;;;;;28.53;26.13;;;15.30;99.90;;;;;;5054585;28;20879;-70
2023/07/14 05:30:14;;;;;;;29.93;27.53;;;15.40;99.90;;;;;;5054346;28;20428;-71
2023/07/14 05:32:45;;;;;;;30.70;28.17;;;15.40;99.90;;;;;;5055124;28;20425;-71
2023/07/14 05:35:15;;;;;;;32.33;29.53;;;15.40;99.90;;;;;;5054733;28;20861;-71
2023/07/14 05:37:44;;;;;;;31.53;28.47;;;15.50;99.90;;;;;;5054897;28;20461;-71
2023/07/14 05:40:14;;;;;;;32.67;29.77;;;15.50;99.90;;;;;;5054471;28;20540;-71
2023/07/14 05:42:42;;;;;;;31.23;28.53;;;15.60;99.90;;;;;;5054259;28;20478;-71
2023/07/14 05:45:12;;;;;;;31.93;29.13;;;15.60;99.90;;;;;;5054174;28;20768;-71
2023/07/14 05:47:46;;;;;;;30.70;28.10;;;15.70;99.90;;;;;;5054088;28;20459;-71
2023/07/14 05:50:15;;;;;;;30.57;28.07;;;15.70;99.90;;;;;;5052981;28;20824;-71
2023/07/14 05:52:44;;;;;;;33.27;30.03;;;15.90;99.90;;;;;;5054007;28;20416;-71
2023/07/14 05:55:12;;;;;;;32.87;30.07;;;16.00;99.90;;;;;;5053938;28;20466;-71
2023/07/14 05:57:41;;;;;;;33.50;30.47;;;16.10;99.90;;;;;;5053951;28;20413;-71
2023/07/14 06:00:16;;;;;;;29.13;26.50;;;16.20;99.90;;;;;;5054258;28;20482;-71
2023/07/14 06:02:49;;;;;;;29.63;27.00;;;16.30;99.90;;;;;;5052750;28;20423;-71
2023/07/14 06:05:19;;;;;;;33.30;29.77;;;16.50;99.90;;;;;;5053952;28;20419;-71
2023/07/14 06:07:47;;;;;;;29.60;26.57;;;16.60;99.90;;;;;;5053570;28;20491;-71
2023/07/14 06:10:16;;;;;;;28.93;26.23;;;16.80;99.90;;;;;;5052531;28;20480;-71
2023/07/14 06:12:44;;;;;;;30.30;27.50;;;16.90;99.90;;;;;;5054230;28;20415;-71
2023/07/14 06:15:12;;;;;;;26.40;24.30;;;17.00;99.90;;;;;;5053574;28;20524;-71
2023/07/14 06:17:41;;;;;;;28.20;25.60;;;17.00;99.90;;;;;;5053657;28;20944;-71
2023/07/14 06:20:11;;;;;;;25.90;23.57;;;17.20;99.90;;;;;;5053568;28;20457;-71
2023/07/14 06:22:40;;;;;;;27.23;24.83;;;17.20;99.90;;;;;;5052221;28;20455;-71
2023/07/14 06:25:09;;;;;;;27.40;25.00;;;17.30;99.90;;;;;;5053528;28;20482;-71
2023/07/14 06:27:37;;;;;;;27.83;25.30;;;17.50;99.90;;;;;;5052935;28;20477;-71
2023/07/14 06:30:07;;;;;;;28.23;25.83;;;17.60;99.90;;;;;;5052194;28;20994;-72
2023/07/14 06:32:38;;;;;;;27.57;25.07;;;17.70;99.90;;;;;;5052361;28;20393;-72
2023/07/14 06:35:10;;;;;;;28.03;25.43;;;17.70;99.90;;;;;;5053656;28;20429;-71
2023/07/14 06:37:39;;;;;;;26.60;24.40;;;17.70;99.90;;;;;;5054026;28;20389;-71
2023/07/14 06:40:09;;;;;;;28.40;25.90;;;17.70;99.90;;;;;;5053252;28;20429;-70
2023/07/14 06:42:37;;;;;;;26.80;24.50;;;17.80;99.90;;;;;;5052120;28;20439;-71
2023/07/14 06:45:06;;;;;;;27.90;25.23;;;17.80;99.90;;;;;;5053648;28;20495;-71
2023/07/14 06:47:35;;;;;;;24.53;22.17;;;17.90;99.90;;;;;;5053336;28;20469;-71
2023/07/14 06:50:04;;;;;;;25.03;22.83;;;18.00;99.90;;;;;;5053225;28;20440;-71
2023/07/14 06:52:33;;;;;;;26.60;24.23;;;18.00;99.90;;;;;;5058071;28;20439;-71
2023/07/14 06:55:02;;;;;;;26.53;24.10;;;18.10;99.90;;;;;;5057484;28;20448;-71
2023/07/14 06:57:30;;;;;;;26.20;23.97;;;18.20;99.90;;;;;;5069410;28;20574;-71
2023/07/14 06:59:58;;;;;;;25.60;23.37;;;18.30;99.90;;;;;;5053953;28;20429;-71
2023/07/14 07:02:28;;;;;;;24.63;22.20;;;18.30;99.90;;;;;;5054045;28;20522;-71
2023/07/14 07:04:56;;;;;;;26.70;23.97;;;18.30;99.90;;;;;;5052585;28;20767;-70
2023/07/14 07:07:24;;;;;;;25.17;22.90;;;18.30;99.90;;;;;;5053605;28;20469;-71
2023/07/14 07:09:55;;;;;;;24.20;21.90;;;18.40;99.90;;;;;;5053898;28;20497;-70
2023/07/14 07:12:24;;;;;;;24.63;22.13;;;18.40;99.90;;;;;;5053923;28;20423;-71
2023/07/14 07:14:53;;;;;;;21.67;19.87;;;18.50;99.90;;;;;;5053291;28;20413;-71
2023/07/14 07:17:21;;;;;;;22.70;20.90;;;18.50;99.90;;;;;;5053549;28;20564;-70
2023/07/14 07:19:49;;;;;;;22.07;20.07;;;18.50;99.90;;;;;;5053496;28;20658;-71
2023/07/14 07:22:17;;;;;;;23.60;21.57;;;18.50;99.90;;;;;;5051994;28;20482;-69
2023/07/14 07:24:46;;;;;;;23.77;21.40;;;18.60;99.90;;;;;;5053369;28;20946;-70
2023/07/14 07:27:14;;;;;;;23.67;21.57;;;18.70;99.90;;;;;;5053220;28;20441;-71
2023/07/14 07:29:43;;;;;;;21.70;19.90;;;18.70;99.90;;;;;;5053055;28;20460;-70
2023/07/14 07:32:11;;;;;;;20.53;18.87;;;18.80;99.90;;;;;;5053340;28;20540;-70
2023/07/14 07:34:40;;;;;;;19.37;17.57;;;18.90;99.90;;;;;;5068730;28;21062;-70
2023/07/14 07:37:10;;;;;;;20.30;18.43;;;19.10;99.90;;;;;;5052813;28;20978;-71
2023/07/14 07:39:38;;;;;;;18.43;16.77;;;19.20;99.90;;;;;;5054398;28;20465;-70
2023/07/14 07:42:10;;;;;;;17.40;15.80;;;19.40;99.90;;;;;;5057335;28;20438;-70
2023/07/14 07:44:39;;;;;;;16.03;14.73;;;19.50;99.90;;;;;;5057551;28;20768;-72
2023/07/14 07:47:09;;;;;;;15.57;13.93;;;19.60;99.90;;;;;;5055568;28;20453;-71
2023/07/14 07:49:37;;;;;;;16.03;14.67;;;19.70;99.90;;;;;;5056468;28;20458;-70
2023/07/14 07:52:06;;;;;;;16.10;14.60;;;19.90;99.90;;;;;;5056800;28;20897;-71
2023/07/14 07:54:34;;;;;;;14.83;13.50;;;20.00;99.90;;;;;;5056534;28;20430;-71
2023/07/14 07:57:02;;;;;;;16.07;14.77;;;20.10;99.90;;;;;;5056840;28;20466;-70
2023/07/14 07:59:31;;;;;;;14.60;13.30;;;20.20;99.90;;;;;;5056621;28;20457;-70
2023/07/14 08:01:59;;;;;;;14.73;13.37;;;20.20;99.90;;;;;;5056639;28;20438;-70
2023/07/14 08:04:29;;;;;;;14.87;13.47;;;20.30;99.90;;;;;;5055631;28;20440;-70
2023/07/14 08:06:58;;;;;;;12.77;11.60;;;20.40;99.90;;;;;;5055090;28;20430;-70
2023/07/14 08:09:26;;;;;;;11.97;10.93;;;20.50;99.90;;;;;;5056147;28;20548;-70
2023/07/14 08:11:56;;;;;;;10.43;9.50;;;20.60;99.90;;;;;;5056116;28;20492;-70
2023/07/14 08:14:24;;;;;;;11.10;10.00;;;20.60;99.90;;;;;;5056012;28;20442;-70
2023/07/14 08:16:53;;;;;;;12.43;9.40;;;20.70;99.90;;;;;;5056358;28;20969;-71
2023/07/14 08:19:22;;;;;;;11.77;10.57;;;20.80;99.90;;;;;;5056149;28;20466;-70
2023/07/14 08:21:52;;;;;;;10.63;8.43;;;20.80;99.90;;;;;;5055335;28;20774;-70
2023/07/14 08:24:20;;;;;;;9.83;8.93;;;20.90;99.90;;;;;;5055773;28;20473;-70
2023/07/14 08:26:48;;;;;;;10.93;9.23;;;20.90;99.90;;;;;;5056463;28;20415;-70
2023/07/14 08:29:16;;;;;;;7.87;7.07;;;21.00;99.90;;;;;;5056145;28;20961;-70
2023/07/14 08:31:44;;;;;;;8.60;7.60;;;21.10;99.90;;;;;;5056129;28;20437;-70
2023/07/14 08:34:13;;;;;;;7.00;6.40;;;21.20;99.90;;;;;;5054653;28;20827;-71
2023/07/14 08:36:41;;;;;;;8.33;7.50;;;21.20;99.90;;;;;;5056247;28;20466;-70
2023/07/14 08:39:10;;;;;;;7.80;7.10;;;21.20;99.90;;;;;;5056342;28;20477;-69
2023/07/14 08:41:40;;;;;;;7.20;6.50;;;21.20;99.90;;;;;;5056360;28;20438;-70
2023/07/14 08:44:28;;;;;;;8.30;7.50;;;21.30;99.90;;;;;;5056420;28;20883;-70
2023/07/14 08:47:05;;;;;;;6.57;6.03;;;21.30;99.90;;;;;;5055852;28;20425;-70
2023/07/14 08:49:47;;;;;;;6.57;5.90;;;21.40;99.90;;;;;;5055573;28;20458;-71
2023/07/14 08:52:22;;;;;;;6.50;6.00;;;21.40;99.90;;;;;;5055824;28;20419;-71
2023/07/14 08:55:03;;;;;;;9.00;8.20;;;21.50;99.90;;;;;;5055800;28;20492;-71
2023/07/14 08:57:36;;;;;;;8.23;7.37;;;21.60;99.90;;;;;;5055469;28;20455;-71
2023/07/14 09:00:06;;;;;;;6.47;5.80;;;21.60;99.90;;;;;;5055293;28;20963;-70
2023/07/14 09:02:40;;;;;;;8.47;7.50;;;21.60;99.90;;;;;;5053795;28;20442;-70
2023/07/14 09:05:16;;;;;;;7.43;6.73;;;21.60;99.90;;;;;;5055029;28;20429;-71
2023/07/14 09:07:45;;;;;;;9.60;6.87;;;21.70;99.90;;;;;;5054045;28;20520;-71
2023/07/14 09:10:14;;;;;;;7.17;6.47;;;21.70;99.90;;;;;;5054992;28;21036;-71
2023/07/14 09:12:52;;;;;;;7.67;6.20;;;21.70;99.90;;;;;;5054838;28;20438;-71
2023/07/14 09:15:25;;;;;;;5.43;4.97;;;21.80;99.90;;;;;;5053576;28;20915;-71
2023/07/14 09:18:06;;;;;;;6.83;5.37;;;21.80;99.90;;;;;;5055080;28;20490;-71
2023/07/14 09:20:51;;;;;;;9.47;5.30;;;21.80;99.90;;;;;;5054889;28;20457;-71
2023/07/14 09:23:43;;;;;;;5.40;4.97;;;21.80;99.90;;;;;;5054574;28;20425;-71
2023/07/14 09:26:19;;;;;;;4.70;4.30;;;21.80;99.90;;;;;;5054570;28;21032;-71
2023/07/14 09:28:49;;;;;;;5.53;5.03;;;21.80;99.90;;;;;;5055062;28;20418;-71
2023/07/14 09:31:37;;;;;;;6.80;5.23;;;21.80;99.90;;;;;;5055026;28;20807;-71
2023/07/14 09:34:15;;;;;;;5.20;4.80;;;21.90;99.90;;;;;;5054670;28;20512;-71
2023/07/14 09:36:44;;;;;;;5.93;4.97;;;21.90;99.90;;;;;;5054332;28;20475;-71
2023/07/14 09:39:20;;;;;;;7.97;5.20;;;21.90;99.90;;;;;;5054288;28;20456;-71
2023/07/14 09:41:52;;;;;;;6.90;5.27;;;21.90;99.90;;;;;;5054301;28;20517;-71
2023/07/14 09:44:23;;;;;;;5.00;4.60;;;21.90;99.90;;;;;;5054869;28;20429;-71
2023/07/14 09:46:52;;;;;;;5.03;4.63;;;21.80;99.90;;;;;;5054167;28;20451;-71
2023/07/14 09:49:28;;;;;;;5.63;5.20;;;21.80;99.90;;;;;;5054017;28;20477;-71
2023/07/14 09:52:10;;;;;;;6.60;4.80;;;21.80;99.90;;;;;;5054414;28;20418;-71
2023/07/14 09:54:53;;;;;;;6.00;4.90;;;21.90;99.90;;;;;;5055812;28;20429;-71
2023/07/14 09:57:27;;;;;;;5.60;5.00;;;21.90;99.90;;;;;;5057917;28;20462;-71
2023/07/14 10:00:19;;;;;;;6.80;6.10;;;22.00;99.90;;;;;;5055013;28;20458;-71
2023/07/14 10:02:51;;;;;;;5.63;5.10;;;22.10;99.90;;;;;;5053767;28;20422;-71
2023/07/14 10:05:34;;;;;;;6.60;6.00;;;22.10;99.90;;;;;;5054814;28;20421;-71
2023/07/14 10:08:04;;;;;;;5.90;5.40;;;22.20;99.90;;;;;;5054601;28;20450;-71
2023/07/14 10:10:42;;;;;;;7.30;5.30;;;22.20;99.90;;;;;;5052697;28;21044;-71
2023/07/14 10:13:20;;;;;;;5.90;5.30;;;22.30;99.90;;;;;;5054585;28;20425;-71
2023/07/14 10:15:54;;;;;;;6.87;5.40;;;22.30;99.90;;;;;;5054224;28;20755;-71
2023/07/14 10:18:23;;;;;;;7.07;4.60;;;22.30;99.90;;;;;;5053903;28;20449;-73
2023/07/14 10:21:01;;;;;;;5.20;4.70;;;22.30;99.90;;;;;;5053634;28;21085;-71
2023/07/14 10:23:29;;;;;;;5.30;4.90;;;22.30;99.90;;;;;;5054179;28;20426;-75
2023/07/14 10:25:57;;;;;;;6.67;4.70;;;22.20;99.90;;;;;;5053519;28;20553;-73
2023/07/14 10:28:29;;;;;;;5.07;4.17;;;22.30;99.90;;;;;;5053885;28;20499;-74
2023/07/14 10:31:10;;;;;;;4.90;4.40;;;22.30;99.90;;;;;;5054128;28;20541;-71
2023/07/14 10:33:49;;;;;;;4.93;4.20;;;22.30;99.90;;;;;;5054563;28;20495;-71
2023/07/14 10:36:21;;;;;;;4.87;3.77;;;22.30;99.90;;;;;;5053234;28;20969;-71
2023/07/14 10:38:54;;;;;;;7.47;4.60;;;22.30;99.90;;;;;;5054938;28;20549;-71
2023/07/14 10:41:23;;;;;;;6.60;4.70;;;22.40;99.90;;;;;;5054876;28;21028;-71
2023/07/14 10:43:56;;;;;;;6.17;4.30;;;22.40;99.90;;;;;;5054549;28;20438;-70
2023/07/14 10:46:28;;;;;;;8.03;4.90;;;22.40;99.90;;;;;;5055080;28;20422;-71
2023/07/14 10:49:22;;;;;;;5.80;4.10;;;22.40;99.90;;;;;;5059959;28;20418;-71
2023/07/14 10:51:55;;;;;;;5.33;4.37;;;22.40;99.90;;;;;;5058289;28;20452;-71
2023/07/14 10:54:36;;;;;;;6.27;5.07;;;22.40;99.90;;;;;;5056418;28;20480;-71
2023/07/14 10:57:09;;;;;;;6.50;5.20;;;22.40;99.90;;;;;;5057706;28;20433;-75
2023/07/14 10:59:48;;;;;;;8.17;4.90;;;22.40;99.90;;;;;;5056627;28;20555;-71
2023/07/14 11:02:22;;;;;;;5.13;4.43;;;22.50;99.90;;;;;;5056092;28;20496;-71
2023/07/14 11:04:55;;;;;;;4.70;3.83;;;22.50;99.90;;;;;;5054123;28;20811;-71
2023/07/14 11:07:30;;;;;;;6.47;3.83;;;22.60;99.90;;;;;;5054028;28;20596;-71
2023/07/14 11:09:59;;;;;;;7.00;4.57;;;22.70;99.90;;;;;;5054116;28;20989;-71
2023/07/14 11:12:47;;;;;;;4.90;4.40;;;22.70;99.90;;;;;;5054125;28;20809;-71
2023/07/14 11:15:25;;;;;;;4.83;4.33;;;22.70;99.90;;;;;;5058685;28;20426;-71
2023/07/14 11:18:02;;;;;;;7.03;4.40;;;22.70;99.90;;;;;;5058309;28;20557;-71
2023/07/14 11:20:39;;;;;;;4.40;4.00;;;22.70;99.90;;;;;;5058397;28;20519;-72
2023/07/14 11:23:24;;;;;;;4.03;3.63;;;22.70;99.90;;;;;;5058391;28;20817;-71
2023/07/14 11:25:57;;;;;;;4.40;3.80;;;22.70;99.90;;;;;;5057721;28;20499;-71
2023/07/14 11:28:37;;;;;;;5.00;4.07;;;22.80;99.90;;;;;;5058278;28;20428;-71
2023/07/14 11:31:20;;;;;;;5.67;4.40;;;22.90;99.90;;;;;;5057990;28;20500;-71
2023/07/14 11:33:58;;;;;;;4.77;4.27;;;23.00;99.90;;;;;;5057957;28;20454;-71
2023/07/14 11:36:33;;;;;;;6.60;4.13;;;23.10;99.90;;;;;;5056359;28;20434;-71
2023/07/14 11:39:08;;;;;;;5.20;4.47;;;23.30;99.90;;;;;;5057921;28;20481;-71
2023/07/14 11:41:37;;;;;;;4.77;4.37;;;23.40;99.90;;;;;;5055271;28;20863;-71
2023/07/14 11:44:11;;;;;;;4.90;4.37;;;23.50;99.90;;;;;;5056743;28;20931;-71
2023/07/14 11:46:43;;;;;;;4.37;3.97;;;23.60;99.90;;;;;;5056856;28;20417;-71
2023/07/14 11:49:24;;;;;;;4.00;3.27;;;23.70;99.90;;;;;;5055173;28;20469;-71
2023/07/14 11:51:55;;;;;;;4.60;3.83;;;23.70;99.90;;;;;;5057120;28;20493;-72
2023/07/14 11:54:26;;;;;;;4.07;3.67;;;23.80;99.90;;;;;;5056427;28;20434;-71
2023/07/14 11:57:44;;;;;;;5.57;4.40;;;23.80;99.90;;;;;;5946476;22;20493;31
2023/07/14 12:00:35;;;;;;;4.67;3.93;;;23.80;99.90;;;;;;5019685;23;20498;-72
2023/07/14 12:03:09;;;;;;;3.53;3.10;;;23.80;99.90;;;;;;5016846;28;20427;-73
2023/07/14 12:06:22;;;;;;;3.37;3.00;;;23.90;99.90;;;;;;5016715;28;20420;-72
2023/07/14 12:09:10;;;;;;;5.23;3.40;;;24.00;99.90;;;;;;5015108;28;20942;-72
2023/07/14 12:11:54;;;;;;;3.10;2.80;;;24.00;99.90;;;;;;5043501;23;20520;-72
2023/07/14 12:14:46;;;;;;;4.13;2.83;;;24.00;99.90;;;;;;5036074;28;20888;-72
2023/07/14 12:17:48;;;;;;;4.00;3.30;;;24.00;99.90;;;;;;5036242;28;20456;-73
2023/07/14 12:20:31;;;;;;;3.90;3.50;;;24.00;99.90;;;;;;5032496;28;20497;-72
2023/07/14 12:23:16;;;;;;;4.07;3.57;;;24.00;99.90;;;;;;5035884;28;20911;-71
2023/07/14 12:25:50;;;;;;;4.40;2.83;;;24.00;99.90;;;;;;5035486;28;20419;-72
2023/07/14 12:28:26;;;;;;;3.40;3.10;;;24.10;99.90;;;;;;5036315;28;20419;-72
2023/07/14 12:30:54;;;;;;;3.70;3.10;;;24.20;99.90;;;;;;5035992;28;20827;-72
2023/07/14 12:33:25;;;;;;;6.10;3.67;;;24.20;99.90;;;;;;5035891;28;20435;-72
2023/07/14 12:35:54;;;;;;;4.30;3.40;;;24.10;99.90;;;;;;5035983;28;20455;-72
2023/07/14 12:38:24;;;;;;;3.67;3.37;;;24.10;99.90;;;;;;5034252;28;20807;-72
2023/07/14 12:40:55;;;;;;;3.77;2.90;;;24.10;99.90;;;;;;5036020;28;20534;-72
2023/07/14 12:43:36;;;;;;;4.53;3.20;;;24.10;99.90;;;;;;5036632;28;20892;-71
2023/07/14 12:46:15;;;;;;;3.77;3.33;;;24.20;99.90;;;;;;5035950;28;20477;-72
2023/07/14 12:48:44;;;;;;;3.80;2.90;;;24.30;99.90;;;;;;5034104;28;20525;-71
2023/07/14 12:51:18;;;;;;;3.83;2.73;;;24.30;99.90;;;;;;5035681;28;20860;-71
2023/07/14 12:53:58;;;;;;;3.80;3.40;;;24.30;99.90;;;;;;5035645;28;20425;-72
2023/07/14 12:56:29;;;;;;;5.30;3.20;;;24.30;99.90;;;;;;5035326;28;20419;-72
2023/07/14 12:58:59;;;;;;;4.80;3.70;;;24.40;99.90;;;;;;5035255;28;21034;-72